Time;durP1;ratioP1;P1;durP2;ratioP2;P2;SDS_P1;SDS_P2;PMS_P1;PMS_P2;Temp;Humidity;BMP_temperature;BMP_pressure;BME280_temperature;BME280_humidity;BME280_pressure;Samples;Min_cycle;Max_cycle;Signal;HPM_P1;HPM_P2
2021/09/10 00:02:03;;;;;;;3.70;2.50;;;;;;;17.29;50.83;99368.03;5018556;28;20252;-92
2021/09/10 00:04:30;;;;;;;5.03;2.77;;;;;;;17.36;50.87;99382.94;5034827;28;20226;-91
2021/09/10 00:06:57;;;;;;;4.47;2.70;;;;;;;17.31;51.26;99388.34;5036168;28;20304;-86
2021/09/10 00:09:24;;;;;;;3.70;2.63;;;;;;;17.23;51.74;99390.78;5035842;28;20313;-92
2021/09/10 00:11:51;;;;;;;4.23;2.97;;;;;;;17.10;51.70;99382.09;5018560;28;20697;-84
2021/09/10 00:14:18;;;;;;;4.07;2.50;;;;;;;17.17;51.61;99389.94;5002144;28;20245;-88
2021/09/10 00:16:45;;;;;;;5.40;2.90;;;;;;;17.06;51.88;99382.91;5018384;28;20713;-88
2021/09/10 00:19:11;;;;;;;4.40;2.43;;;;;;;17.00;52.31;99394.78;5051152;28;20562;-86
2021/09/10 00:21:38;;;;;;;6.97;2.53;;;;;;;16.86;52.39;99391.78;5034642;28;20234;-86
2021/09/10 00:24:05;;;;;;;3.77;2.50;;;;;;;16.79;52.86;99399.34;5051277;28;20520;-81
2021/09/10 00:26:32;;;;;;;6.30;2.80;;;;;;;16.74;52.88;99391.22;5018307;28;20254;-85
2021/09/10 00:28:59;;;;;;;4.07;2.60;;;;;;;16.61;53.10;99383.59;5034515;28;20233;-86
2021/09/10 00:31:25;;;;;;;3.60;2.50;;;;;;;16.57;53.25;99394.06;5050931;28;20300;-85
2021/09/10 00:33:52;;;;;;;5.00;2.90;;;;;;;16.50;53.36;99385.41;5035486;28;20288;-82
2021/09/10 00:36:19;;;;;;;2.60;2.20;;;;;;;16.52;53.95;99398.63;5034224;28;20314;-91
2021/09/10 00:38:46;;;;;;;3.60;2.70;;;;;;;16.46;54.08;99388.91;5018087;28;20249;-89
2021/09/10 00:41:12;;;;;;;4.73;2.53;;;;;;;16.32;54.54;99382.34;5034594;28;20229;-91
2021/09/10 00:43:42;;;;;;;4.83;3.07;;;;;;;16.25;55.39;99394.19;5034151;28;20242;-86
2021/09/10 00:46:09;;;;;;;3.20;2.60;;;;;;;16.11;55.73;99395.72;5017591;28;20676;-89
2021/09/10 00:48:38;;;;;;;6.07;2.50;;;;;;;16.01;56.01;99386.72;5035202;28;20381;-86
2021/09/10 00:51:05;;;;;;;7.60;2.40;;;;;;;15.81;56.66;99373.94;5018081;28;20250;-92
2021/09/10 00:53:32;;;;;;;4.07;3.07;;;;;;;15.63;57.54;99367.03;5050159;28;20699;-84
2021/09/10 00:56:00;;;;;;;3.13;2.63;;;;;;;15.60;57.93;99385.63;5050771;28;20233;-83
2021/09/10 00:58:26;;;;;;;6.87;3.20;;;;;;;15.48;58.82;99388.50;5033720;28;20618;-91
2021/09/10 01:00:53;;;;;;;3.67;2.87;;;;;;;15.33;59.37;99391.88;5033945;28;20253;-86
2021/09/10 01:03:20;;;;;;;4.47;2.93;;;;;;;15.23;59.94;99394.47;5035130;28;20229;-90
2021/09/10 01:05:48;;;;;;;4.23;2.83;;;;;;;15.10;59.95;99386.78;5033888;28;20571;-89
2021/09/10 01:08:15;;;;;;;4.40;3.40;;;;;;;15.04;60.35;99392.38;5017065;28;20293;-91
2021/09/10 01:10:42;;;;;;;4.17;2.90;;;;;;;14.86;60.89;99382.75;5017722;28;20629;-88
2021/09/10 01:13:12;;;;;;;5.30;3.30;;;;;;;14.75;60.91;99386.38;5017958;28;20230;-90
2021/09/10 01:15:39;;;;;;;7.47;3.10;;;;;;;14.59;60.71;99390.81;5034265;28;20243;-88
2021/09/10 01:18:06;;;;;;;5.60;3.43;;;;;;;14.44;61.04;99387.91;5020565;28;20232;-88
2021/09/10 01:20:33;;;;;;;4.83;3.63;;;;;;;14.31;61.39;99382.88;5020555;28;20244;-91
2021/09/10 01:22:59;;;;;;;5.27;3.33;;;;;;;14.27;61.90;99393.34;5037181;28;20279;-86
2021/09/10 01:25:27;;;;;;;5.57;3.30;;;;;;;14.20;61.39;99392.69;5037324;28;20228;-85
2021/09/10 01:27:56;;;;;;;5.67;3.30;;;;;;;14.04;62.41;99388.16;5036664;28;20270;-83
2021/09/10 01:30:29;;;;;;;6.03;3.40;;;;;;;13.93;62.57;99381.81;5020285;28;20575;-83
2021/09/10 01:32:57;;;;;;;3.67;3.03;;;;;;;13.91;63.08;99396.56;5020982;28;20327;-85
2021/09/10 01:35:24;;;;;;;5.93;3.43;;;;;;;13.85;63.46;99394.88;5020677;28;20234;-87
2021/09/10 01:37:51;;;;;;;6.07;3.50;;;;;;;13.77;63.82;99393.41;5053414;28;20333;-90
2021/09/10 01:40:17;;;;;;;4.40;3.27;;;;;;;13.60;63.77;99379.97;5036593;28;20289;-85
2021/09/10 01:42:44;;;;;;;6.23;3.80;;;;;;;13.64;63.85;99388.34;5021077;28;20263;-82
2021/09/10 01:45:12;;;;;;;5.07;3.70;;;;;;;13.60;63.49;99384.53;5021145;28;20320;-80
2021/09/10 01:47:40;;;;;;;3.87;3.23;;;;;;;13.48;64.28;99389.19;5054082;28;20254;-85
2021/09/10 01:50:18;;;;;;;5.17;3.60;;;;;;;13.54;64.01;99391.69;5021759;28;20250;-83
2021/09/10 01:52:50;;;;;;;4.13;3.60;;;;;;;13.38;64.56;99395.19;5063553;28;20237;-80
2021/09/10 01:55:38;;;;;;;3.83;3.43;;;;;;;13.26;64.99;99386.38;5047379;28;20321;-80
2021/09/10 01:58:15;;;;;;;3.73;3.43;;;;;;;13.27;65.20;99401.47;5065182;28;20284;-80
2021/09/10 02:00:51;;;;;;;6.23;3.80;;;;;;;13.20;65.42;99401.59;5065726;28;20233;-80
2021/09/10 02:03:22;;;;;;;6.33;3.43;;;;;;;13.06;65.88;99397.56;5049274;28;20192;-81
2021/09/10 02:06:03;;;;;;;4.30;3.40;;;;;;;13.00;66.10;99398.53;5071373;28;20192;-81
2021/09/10 02:08:44;;;;;;;5.10;3.50;;;;;;;12.98;66.53;99408.69;5067033;28;20221;-80
2021/09/10 02:11:11;;;;;;;6.13;4.10;;;;;;;12.87;66.63;99398.00;5052451;28;20198;-80
2021/09/10 02:13:38;;;;;;;4.37;3.87;;;;;;;12.82;66.63;99396.03;5036778;28;20250;-80
2021/09/10 02:16:28;;;;;;;5.30;3.70;;;;;;;12.79;66.98;99393.81;5072513;23;20222;-81
2021/09/10 02:18:57;;;;;;;5.73;3.60;;;;;;;12.78;67.04;99405.63;5050343;23;20229;-80
2021/09/10 02:21:27;;;;;;;5.30;3.73;;;;;;;12.69;67.22;99404.38;5088920;28;20243;-80
2021/09/10 02:24:02;;;;;;;5.37;3.87;;;;;;;12.62;68.23;99407.19;5073883;28;20232;-80
2021/09/10 02:26:37;;;;;;;5.43;4.07;;;;;;;12.61;68.19;99407.41;5062707;28;20236;-80
2021/09/10 02:29:07;;;;;;;8.23;3.90;;;;;;;12.56;68.21;99413.50;5088856;28;20648;-80
2021/09/10 02:31:43;;;;;;;5.70;3.97;;;;;;;12.52;68.38;99409.66;5025843;28;20234;-80
2021/09/10 02:34:13;;;;;;;4.67;3.70;;;;;;;12.52;68.10;99406.97;5031157;28;20210;-80
2021/09/10 02:36:41;;;;;;;5.13;4.00;;;;;;;12.37;68.61;99393.22;5012939;28;20250;-80
2021/09/10 02:39:12;;;;;;;5.47;3.87;;;;;;;12.43;68.94;99412.97;5013762;28;20198;-80
2021/09/10 02:41:45;;;;;;;4.13;3.83;;;;;;;12.35;69.32;99408.78;5013603;28;20206;-79
2021/09/10 02:44:16;;;;;;;5.93;3.87;;;;;;;12.28;69.18;99395.47;5012803;28;20222;-80
2021/09/10 02:46:46;;;;;;;4.77;4.10;;;;;;;12.25;69.39;99397.81;5051817;22;20230;-80
2021/09/10 02:49:18;;;;;;;5.87;4.10;;;;;;;12.19;69.37;99393.38;5049849;28;20313;-80
2021/09/10 02:52:13;;;;;;;4.40;3.80;;;;;;;12.29;69.53;99417.78;5035396;28;20262;-79
2021/09/10 02:54:50;;;;;;;5.30;4.40;;;;;;;12.23;69.33;99421.38;5050584;28;20186;-80
2021/09/10 02:57:27;;;;;;;6.43;4.60;;;;;;;12.18;69.53;99407.84;5021087;28;20229;-80
2021/09/10 03:00:11;;;;;;;5.47;3.70;;;;;;;12.00;69.62;99383.81;5066480;23;20255;-80
2021/09/10 03:02:45;;;;;;;7.33;4.00;;;;;;;12.05;69.80;99389.28;5037379;28;20233;-80
2021/09/10 03:05:18;;;;;;;4.67;4.23;;;;;;;12.07;70.08;99395.25;5093844;23;20237;-80
2021/09/10 03:07:47;;;;;;;4.70;4.07;;;;;;;12.05;70.43;99395.50;5098924;23;20229;-80
2021/09/10 03:10:18;;;;;;;5.40;4.07;;;;;;;12.01;70.58;99394.31;5069328;28;20267;-80
2021/09/10 03:12:46;;;;;;;4.60;4.20;;;;;;;11.95;70.44;99391.75;5089297;28;20251;-80
2021/09/10 03:15:17;;;;;;;6.63;4.60;;;;;;;12.00;70.45;99411.47;5071577;28;20185;-80
2021/09/10 03:17:44;;;;;;;5.60;4.10;;;;;;;11.93;70.52;99405.44;5088811;28;20254;-80
2021/09/10 03:20:38;;;;;;;4.83;4.00;;;;;;;11.92;70.26;99403.78;5078459;23;20517;-80
2021/09/10 03:23:12;;;;;;;6.20;4.53;;;;;;;11.88;70.74;99408.00;5030743;28;20232;-80
2021/09/10 03:26:09;;;;;;;6.63;4.33;;;;;;;11.87;70.51;99403.66;5049547;28;20246;-80
2021/09/10 03:28:36;;;;;;;5.20;4.40;;;;;;;11.79;70.98;99404.03;5050772;28;20190;-80
2021/09/10 03:31:03;;;;;;;7.10;4.10;;;;;;;11.73;70.73;99396.88;5121975;23;20223;-80
2021/09/10 03:33:49;;;;;;;5.30;4.30;;;;;;;11.66;71.09;99410.41;5130523;28;20282;-80
2021/09/10 03:36:23;;;;;;;5.17;4.57;;;;;;;11.60;71.14;99414.00;5138091;22;20222;-79
2021/09/10 03:38:58;;;;;;;4.73;4.17;;;;;;;11.60;71.42;99415.88;5096489;28;20223;-80
2021/09/10 03:41:26;;;;;;;4.90;4.40;;;;;;;11.60;70.94;99423.91;5130276;28;20211;-80
2021/09/10 03:44:03;;;;;;;4.90;4.33;;;;;;;11.46;72.01;99409.91;5114417;28;20279;-79
2021/09/10 03:46:36;;;;;;;7.50;4.43;;;;;;;11.46;72.07;99416.09;5091156;28;20227;-80
2021/09/10 03:52:06;;;;;;;5.87;4.43;;;;;;;11.36;72.19;99415.81;5007932;28;20227;-79
2021/09/10 03:54:42;;;;;;;6.13;4.33;;;;;;;11.35;72.36;99400.78;5009777;28;20211;-80
2021/09/10 03:57:11;;;;;;;5.93;4.47;;;;;;;11.40;72.23;99413.50;5009863;28;20295;-80
2021/09/10 03:59:38;;;;;;;6.30;4.50;;;;;;;11.38;72.66;99415.59;4992107;28;20231;-80
2021/09/10 04:02:09;;;;;;;4.70;4.30;;;;;;;11.31;73.18;99422.91;5092541;22;20240;-80
2021/09/10 04:04:41;;;;;;;5.13;4.10;;;;;;;11.33;72.99;99410.94;5051747;28;20221;-80
2021/09/10 04:07:15;;;;;;;4.30;3.90;;;;;;;11.23;73.24;99404.47;5069477;28;20233;-80
2021/09/10 04:09:57;;;;;;;5.10;4.60;;;;;;;11.30;73.19;99413.22;5085466;28;20217;-80
2021/09/10 04:12:31;;;;;;;4.73;4.27;;;;;;;11.26;73.27;99420.91;5102444;23;20235;-80
2021/09/10 04:15:04;;;;;;;5.57;4.20;;;;;;;11.24;73.43;99416.84;5111363;28;20278;-80
2021/09/10 04:17:39;;;;;;;5.47;4.50;;;;;;;11.27;73.85;99424.41;5130238;28;20227;-80
2021/09/10 04:20:13;;;;;;;5.80;4.50;;;;;;;11.21;73.28;99426.16;5130552;28;20208;-79
2021/09/10 04:22:47;;;;;;;7.03;4.50;;;;;;;11.18;73.29;99426.63;5136822;22;20223;-80
2021/09/10 04:25:25;;;;;;;5.30;4.47;;;;;;;11.18;73.22;99439.19;5110975;22;20228;-80
2021/09/10 04:27:57;;;;;;;5.00;4.50;;;;;;;11.17;73.37;99435.69;5100861;22;20224;-80
2021/09/10 04:30:37;;;;;;;4.27;3.80;;;;;;;11.19;73.26;99435.47;5090195;28;20192;-80
2021/09/10 04:33:10;;;;;;;7.30;4.57;;;;;;;11.21;73.42;99446.78;5089709;28;20208;-80
2021/09/10 04:35:44;;;;;;;5.00;4.47;;;;;;;11.17;73.63;99443.75;5081809;23;20253;-80
2021/09/10 04:38:14;;;;;;;5.93;4.63;;;;;;;11.30;73.54;99456.97;5111041;28;20188;-80
2021/09/10 04:40:47;;;;;;;4.90;4.37;;;;;;;11.35;73.34;99449.06;5110560;28;20258;-80
2021/09/10 04:43:29;;;;;;;9.20;4.63;;;;;;;11.27;73.42;99432.47;5116435;22;20216;-80
2021/09/10 04:46:21;;;;;;;5.73;4.57;;;;;;;11.29;73.68;99443.81;5119310;22;20228;-79
2021/09/10 04:49:08;;;;;;;6.13;4.77;;;;;;;11.36;73.32;99447.19;5122154;22;20238;-80
2021/09/10 04:51:38;;;;;;;8.00;4.57;;;;;;;11.53;73.17;99464.25;5137133;22;20235;-79
2021/09/10 04:54:38;;;;;;;6.13;4.50;;;;;;;11.66;72.89;99465.94;5113534;28;20258;-80
2021/09/10 04:57:21;;;;;;;4.87;4.40;;;;;;;11.72;72.22;99449.75;5136318;22;20258;-80
2021/09/10 05:00:29;;;;;;;4.70;4.30;;;;;;;11.99;71.45;99466.22;5098758;28;20199;-80
2021/09/10 05:03:04;;;;;;;7.47;4.63;;;;;;;12.07;70.76;99468.59;5132719;28;20240;-80
2021/09/10 05:05:32;;;;;;;5.43;4.83;;;;;;;12.29;70.54;99483.06;5131893;22;20222;-79
2021/09/10 05:08:41;;;;;;;5.50;4.60;;;;;;;12.47;69.64;99487.47;5166429;22;20215;-79
2021/09/10 05:11:27;;;;;;;5.20;4.20;;;;;;;12.54;68.99;99490.06;5019241;22;20235;-80
2021/09/10 05:14:06;;;;;;;5.07;4.57;;;;;;;12.56;68.88;99488.75;5039442;28;20233;-79
2021/09/10 05:16:44;;;;;;;8.03;4.73;;;;;;;12.64;68.36;99480.34;5089040;28;20207;-80
2021/09/10 05:19:12;;;;;;;4.93;4.27;;;;;;;12.82;68.14;99487.44;5085361;22;20233;-80
2021/09/10 05:21:39;;;;;;;9.87;4.83;;;;;;;12.90;67.00;99497.00;5049982;28;20213;-80
2021/09/10 05:24:17;;;;;;;6.13;4.47;;;;;;;12.98;67.47;99486.69;5050380;28;20209;-80
2021/09/10 05:27:06;;;;;;;6.20;4.67;;;;;;;13.02;66.98;99482.44;5050842;28;20209;-80
2021/09/10 05:29:39;;;;;;;5.53;4.43;;;;;;;13.22;66.61;99503.59;5049490;28;20238;-80
2021/09/10 05:32:10;;;;;;;5.40;4.50;;;;;;;13.31;66.62;99504.03;5050383;28;20233;-80
2021/09/10 05:35:00;;;;;;;5.80;4.20;;;;;;;13.47;66.47;99508.66;5050639;28;20178;-80
2021/09/10 05:37:28;;;;;;;5.83;4.50;;;;;;;13.51;66.10;99504.41;5050814;28;20186;-80
2021/09/10 05:40:29;;;;;;;4.73;4.10;;;;;;;13.67;65.60;99507.13;5052304;28;20233;-79
2021/09/10 05:43:00;;;;;;;7.07;4.30;;;;;;;13.87;65.48;99505.84;5053618;28;20210;-80
2021/09/10 05:45:30;;;;;;;6.67;4.40;;;;;;;14.10;64.61;99524.53;5071968;23;20186;-80
2021/09/10 05:48:19;;;;;;;7.57;4.50;;;;;;;14.34;63.57;99507.16;5117991;28;20306;-80
2021/09/10 05:50:48;;;;;;;6.97;5.00;;;;;;;14.55;62.67;99513.69;5143504;22;20242;-80
2021/09/10 05:53:16;;;;;;;5.17;4.67;;;;;;;14.78;61.66;99512.66;5117933;22;20254;-80
2021/09/10 05:55:46;;;;;;;5.87;4.40;;;;;;;14.99;61.07;99512.66;5114151;28;20189;-84
2021/09/10 05:58:13;;;;;;;5.13;4.30;;;;;;;15.11;60.50;99504.44;5089995;28;20251;-81
2021/09/10 06:00:42;;;;;;;6.23;4.40;;;;;;;15.34;59.39;99509.56;5103546;28;20255;-87
2021/09/10 06:03:09;;;;;;;4.73;4.13;;;;;;;15.46;59.09;99498.63;5081657;28;20236;-90
2021/09/10 06:05:36;;;;;;;7.30;4.37;;;;;;;15.59;58.13;99498.22;5098518;28;20224;-88
2021/09/10 06:08:03;;;;;;;3.60;3.30;;;;;;;15.73;58.58;99498.63;5097453;28;20233;-87
2021/09/10 06:10:30;;;;;;;5.20;4.10;;;;;;;16.00;58.29;99517.53;5097636;28;20221;-92
2021/09/10 06:12:57;;;;;;;5.03;4.10;;;;;;;16.09;57.04;99503.28;5098025;28;20268;-94
2021/09/10 06:15:23;;;;;;;6.93;4.13;;;;;;;16.33;57.07;99517.22;5080333;28;20533;-94
2021/09/10 06:17:50;;;;;;;4.93;4.10;;;;;;;16.46;56.76;99502.47;5078887;28;20257;-92
2021/09/10 06:20:17;;;;;;;4.80;3.93;;;;;;;16.64;56.29;99519.09;5071570;28;20691;-93
2021/09/10 06:22:44;;;;;;;5.20;3.90;;;;;;;16.71;55.89;99519.69;5117382;28;20256;-91
2021/09/10 06:25:11;;;;;;;5.17;3.60;;;;;;;16.91;55.39;99520.88;5103551;28;20317;-89
2021/09/10 06:27:38;;;;;;;5.57;3.53;;;;;;;17.01;55.27;99512.78;5063254;28;20627;-93
2021/09/10 06:30:06;;;;;;;5.40;3.90;;;;;;;17.17;54.94;99503.63;5063110;28;20246;-89
2021/09/10 06:32:33;;;;;;;5.00;3.90;;;;;;;17.33;54.83;99508.03;5067581;28;20223;-90
2021/09/10 06:35:00;;;;;;;10.70;4.13;;;;;;;17.53;54.63;99513.53;5100055;28;20230;-95
2021/09/10 06:37:27;;;;;;;8.13;3.80;;;;;;;17.67;53.94;99507.59;5082650;28;20306;-93
2021/09/10 06:39:54;;;;;;;8.83;3.90;;;;;;;17.92;53.53;99515.75;5083627;28;20325;-91
2021/09/10 06:42:20;;;;;;;8.77;4.30;;;;;;;17.95;53.21;99510.63;5116465;28;20354;-90
2021/09/10 06:44:50;;;;;;;7.00;3.97;;;;;;;18.17;52.43;99528.50;5083109;28;20687;-92
2021/09/10 06:47:18;;;;;;;7.30;3.70;;;;;;;18.24;52.12;99507.38;5083059;28;20254;-92
2021/09/10 06:49:45;;;;;;;5.30;3.90;;;;;;;18.36;51.68;99521.44;5077351;28;20577;-94
2021/09/10 06:52:12;;;;;;;5.83;3.90;;;;;;;18.58;51.21;99527.41;5045676;28;20227;-94
2021/09/10 06:54:39;;;;;;;6.70;3.90;;;;;;;18.72;51.60;99533.91;5062591;28;20580;-89
2021/09/10 06:57:06;;;;;;;6.03;4.13;;;;;;;18.71;51.96;99510.56;5062970;28;20228;-93
2021/09/10 06:59:33;;;;;;;5.20;3.80;;;;;;;18.74;52.57;99526.31;5045904;28;20248;-93
2021/09/10 07:01:59;;;;;;;6.67;3.90;;;;;;;18.89;52.25;99533.59;5046693;28;20247;-93
2021/09/10 07:04:26;;;;;;;7.60;4.03;;;;;;;18.96;52.21;99528.66;5045704;28;20220;-90
2021/09/10 07:06:53;;;;;;;4.37;3.33;;;;;;;18.99;51.80;99519.97;5062501;28;20232;-88
2021/09/10 07:09:20;;;;;;;6.87;4.10;;;;;;;19.06;51.31;99517.78;5062744;28;20522;-88
2021/09/10 07:11:47;;;;;;;7.57;3.90;;;;;;;19.21;50.90;99512.28;5062384;28;20232;-92
2021/09/10 07:14:16;;;;;;;9.60;3.80;;;;;;;19.31;51.04;99527.72;5062407;28;20251;-88
2021/09/10 07:16:43;;;;;;;6.70;3.70;;;;;;;19.32;51.19;99519.28;5063117;28;20228;-88
2021/09/10 07:19:09;;;;;;;7.07;3.77;;;;;;;19.50;51.16;99531.47;5035638;28;20571;-90
2021/09/10 07:21:36;;;;;;;6.17;4.03;;;;;;;19.53;50.86;99522.75;5059244;28;20302;-95
2021/09/10 07:24:04;;;;;;;6.60;4.20;;;;;;;19.66;51.07;99535.72;5071983;28;20220;-92
2021/09/10 07:26:31;;;;;;;6.07;3.50;;;;;;;19.78;51.07;99535.38;5083078;28;20223;-87
2021/09/10 07:28:58;;;;;;;3.77;3.43;;;;;;;19.88;51.00;99535.28;5082506;28;20233;-87
2021/09/10 07:31:25;;;;;;;6.33;3.57;;;;;;;19.95;51.12;99537.69;5082786;28;20231;-93
2021/09/10 07:33:52;;;;;;;5.77;4.10;;;;;;;20.12;50.29;99540.81;5099863;28;20223;-89
2021/09/10 07:36:20;;;;;;;5.93;3.90;;;;;;;20.32;50.01;99548.03;5098405;28;20230;-91
2021/09/10 07:38:47;;;;;;;6.37;3.57;;;;;;;20.38;49.96;99547.72;5082375;28;20279;-91
2021/09/10 07:41:14;;;;;;;6.97;3.97;;;;;;;20.42;49.89;99535.16;5081986;28;20251;-92
2021/09/10 07:43:42;;;;;;;6.63;3.70;;;;;;;20.60;49.19;99548.06;5115840;28;20225;-89
2021/09/10 07:46:09;;;;;;;5.60;3.97;;;;;;;20.69;48.54;99540.06;5116471;28;20227;-88
2021/09/10 07:48:37;;;;;;;6.77;4.20;;;;;;;20.81;48.32;99548.63;5082181;28;20224;-89
2021/09/10 07:51:06;;;;;;;9.60;4.20;;;;;;;20.91;48.42;99539.56;5082134;28;20317;-88
2021/09/10 07:53:35;;;;;;;8.40;4.20;;;;;;;21.06;47.23;99553.00;5098076;28;20233;-91
2021/09/10 07:56:04;;;;;;;6.33;4.03;;;;;;;21.06;47.21;99537.47;5082195;28;20533;-86
2021/09/10 07:58:34;;;;;;;10.17;4.40;;;;;;;21.26;47.16;99536.44;5078318;28;20236;-86
2021/09/10 08:01:02;;;;;;;11.57;4.23;;;;;;;21.30;46.82;99542.13;5060037;28;20326;-82
2021/09/10 08:03:32;;;;;;;5.17;4.10;;;;;;;21.41;46.50;99530.00;5059734;28;20301;-86
2021/09/10 08:06:00;;;;;;;9.00;4.47;;;;;;;21.43;46.08;99541.41;5076833;28;20234;-85
2021/09/10 08:08:30;;;;;;;6.43;4.03;;;;;;;21.59;46.25;99531.13;5060101;28;20315;-84
2021/09/10 08:11:00;;;;;;;8.07;4.00;;;;;;;21.66;45.95;99534.28;5062088;28;20706;-83
2021/09/10 08:13:31;;;;;;;6.83;3.87;;;;;;;21.70;45.70;99536.13;5062566;28;20224;-87
2021/09/10 08:16:00;;;;;;;5.83;3.70;;;;;;;21.88;45.49;99542.69;5078293;28;20641;-83
2021/09/10 08:18:32;;;;;;;6.37;3.80;;;;;;;21.95;45.13;99538.50;5078061;28;20307;-84
2021/09/10 08:21:03;;;;;;;10.20;4.10;;;;;;;22.21;44.84;99544.34;5060902;28;20231;-83
2021/09/10 08:23:33;;;;;;;6.90;3.83;;;;;;;22.29;44.67;99543.69;5079542;28;20232;-86
2021/09/10 08:26:01;;;;;;;6.40;3.77;;;;;;;22.47;44.61;99536.56;5097681;28;20226;-88
2021/09/10 08:28:27;;;;;;;7.13;3.83;;;;;;;22.68;44.48;99548.72;5114350;28;20270;-86
2021/09/10 08:30:55;;;;;;;7.97;3.60;;;;;;;22.82;44.62;99543.31;5114760;28;20231;-87
2021/09/10 08:33:23;;;;;;;6.43;4.03;;;;;;;22.98;44.17;99543.84;5115391;28;20231;-86
2021/09/10 08:35:50;;;;;;;7.60;3.40;;;;;;;23.04;43.09;99531.72;5097664;28;20234;-84
2021/09/10 08:38:17;;;;;;;4.67;3.80;;;;;;;23.25;43.10;99532.91;5096562;28;20227;-81
2021/09/10 08:40:45;;;;;;;8.07;3.80;;;;;;;23.41;42.97;99536.13;5080747;28;20557;-82
2021/09/10 08:43:13;;;;;;;7.90;3.70;;;;;;;23.46;43.22;99538.78;5087412;28;20232;-85
2021/09/10 08:45:41;;;;;;;6.27;3.90;;;;;;;23.56;42.63;99539.34;5040358;28;20222;-84
2021/09/10 08:48:09;;;;;;;7.10;3.57;;;;;;;23.70;42.26;99528.41;5040303;28;20522;-85
2021/09/10 08:50:37;;;;;;;7.53;3.80;;;;;;;23.74;42.11;99518.47;5057188;28;20643;-85
2021/09/10 08:53:03;;;;;;;9.33;3.67;;;;;;;23.72;42.15;99500.72;5040147;28;20296;-84
2021/09/10 08:55:32;;;;;;;6.28;3.70;;;;;;;24.05;41.99;99526.75;5040643;28;20281;-86
2021/09/10 08:58:00;;;;;;;6.43;3.92;;;;;;;24.14;41.20;99520.22;5040633;28;20297;-82
2021/09/10 09:00:36;;;;;;;10.57;4.40;;;;;;;24.30;41.01;99514.41;5040504;28;20251;-84
2021/09/10 09:03:10;;;;;;;6.47;3.72;;;;;;;24.43;41.22;99514.31;5041545;28;20242;-86
2021/09/10 09:05:39;;;;;;;7.47;3.67;;;;;;;24.62;41.19;99514.09;5074196;28;20648;-83
2021/09/10 09:08:17;;;;;;;5.03;3.20;;;;;;;24.80;39.48;99506.75;5056319;28;20221;-85
2021/09/10 09:11:06;;;;;;;5.63;3.70;;;;;;;24.95;39.36;99509.13;5057297;28;20592;-83
2021/09/10 09:13:38;;;;;;;5.72;3.10;;;;;;;25.07;38.14;99495.59;5055840;28;20221;-84
2021/09/10 09:16:19;;;;;;;4.95;3.05;;;;;;;25.34;37.82;99506.31;5072937;28;20259;-88
2021/09/10 09:18:50;;;;;;;9.25;3.70;;;;;;;25.49;37.87;99496.81;5057445;28;20224;-82
2021/09/10 09:21:22;;;;;;;6.82;2.88;;;;;;;25.59;35.47;99482.81;5076672;28;20311;-82
2021/09/10 09:23:57;;;;;;;6.45;3.25;;;;;;;25.90;35.70;99498.34;5082031;28;20224;-85
2021/09/10 09:26:33;;;;;;;7.03;3.20;;;;;;;25.92;35.31;99485.06;5081532;28;20220;-87
2021/09/10 09:29:22;;;;;;;6.70;2.97;;;;;;;26.11;34.87;99486.34;5113353;28;20238;-88
2021/09/10 09:32:04;;;;;;;4.10;2.90;;;;;;;26.27;34.36;99486.66;5096883;28;20226;-88
2021/09/10 09:34:44;;;;;;;5.78;3.35;;;;;;;26.33;34.15;99493.59;5113144;28;20229;-86
2021/09/10 09:37:16;;;;;;;4.32;2.78;;;;;;;26.48;34.67;99490.34;5096467;28;20232;-87
2021/09/10 09:39:55;;;;;;;5.63;2.92;;;;;;;26.66;33.49;99486.38;5080029;28;20241;-85
2021/09/10 09:42:29;;;;;;;4.80;2.92;;;;;;;26.81;33.96;99492.47;5096419;28;20234;-83
2021/09/10 09:45:24;;;;;;;4.68;2.97;;;;;;;26.91;33.68;99487.44;5097072;28;20248;-85
2021/09/10 09:47:55;;;;;;;4.38;2.88;;;;;;;26.99;32.92;99489.34;5098151;28;20242;-88
2021/09/10 09:50:24;;;;;;;6.25;3.00;;;;;;;27.08;32.81;99483.78;5102092;28;20234;-86
2021/09/10 09:52:53;;;;;;;6.38;3.03;;;;;;;27.23;32.78;99474.16;5056224;28;20235;-86
2021/09/10 09:55:23;;;;;;;3.97;2.83;;;;;;;27.23;32.17;99471.41;5071040;28;20226;-88
2021/09/10 09:57:55;;;;;;;3.92;2.85;;;;;;;27.32;32.06;99466.66;5093317;28;20621;-90
2021/09/10 10:00:25;;;;;;;3.50;2.88;;;;;;;27.53;32.49;99476.56;5060352;28;20235;-86
2021/09/10 10:02:59;;;;;;;8.82;3.15;;;;;;;27.51;31.54;99461.53;5045113;28;20238;-91
2021/09/10 10:05:27;;;;;;;3.85;2.65;;;;;;;27.50;31.72;99469.00;5043449;28;20224;-83
2021/09/10 10:08:06;;;;;;;5.07;2.72;;;;;;;27.44;32.09;99458.47;5076799;28;20311;-86
2021/09/10 10:10:41;;;;;;;4.68;3.05;;;;;;;27.62;32.04;99461.94;5076567;28;20246;-85
2021/09/10 10:13:14;;;;;;;5.25;2.90;;;;;;;27.65;32.72;99450.25;5060522;28;20281;-90
2021/09/10 10:15:45;;;;;;;7.88;3.13;;;;;;;27.75;33.33;99453.41;5077133;28;20527;-82
2021/09/10 10:18:35;;;;;;;4.30;2.95;;;;;;;27.88;32.44;99459.75;5059909;28;20234;-84
2021/09/10 10:21:06;;;;;;;4.88;2.92;;;;;;;27.92;32.69;99453.25;5075992;28;20235;-82
2021/09/10 10:23:44;;;;;;;5.85;3.33;;;;;;;28.08;32.96;99453.44;5045323;28;20279;-86
2021/09/10 10:26:38;;;;;;;8.50;3.15;;;;;;;27.95;32.75;99451.75;5108487;28;20631;-83
2021/09/10 10:29:12;;;;;;;6.53;3.17;;;;;;;27.96;32.32;99448.66;5063718;28;20231;-85
2021/09/10 10:32:05;;;;;;;5.25;3.17;;;;;;;28.13;32.37;99447.72;5063671;28;20314;-85
2021/09/10 10:35:09;;;;;;;10.20;3.38;;;;;;;28.21;32.12;99449.59;5079825;28;20563;-83
2021/09/10 10:37:40;;;;;;;6.50;2.63;;;;;;;28.34;30.10;99442.13;5079612;28;20669;-85
2021/09/10 10:40:27;;;;;;;4.90;2.90;;;;;;;28.30;29.97;99447.53;5062904;28;20265;-89
2021/09/10 10:43:09;;;;;;;6.32;2.90;;;;;;;28.29;30.93;99437.66;5097918;28;20413;-86
2021/09/10 10:45:47;;;;;;;4.50;2.67;;;;;;;28.46;30.43;99440.19;5079543;28;20231;-84
2021/09/10 10:48:32;;;;;;;4.25;2.80;;;;;;;28.50;30.21;99437.59;5096146;28;20236;-84
2021/09/10 10:51:17;;;;;;;6.75;3.10;;;;;;;28.66;30.99;99435.75;5097426;28;20281;-86
2021/09/10 10:53:46;;;;;;;4.57;2.90;;;;;;;28.75;30.57;99438.41;5062902;28;20259;-88
2021/09/10 10:56:21;;;;;;;3.50;2.70;;;;;;;28.86;29.42;99443.13;5062965;28;20224;-84
2021/09/10 10:59:13;;;;;;;4.90;2.75;;;;;;;28.81;29.24;99437.03;5079307;28;20224;-87
2021/09/10 11:02:22;;;;;;;5.85;2.70;;;;;;;28.91;28.96;99436.59;5097455;28;20277;-83
2021/09/10 11:04:50;;;;;;;3.38;2.75;;;;;;;29.03;27.97;99427.47;5078578;28;20285;-88
2021/09/10 11:07:26;;;;;;;4.93;2.70;;;;;;;28.91;29.37;99424.75;5062601;28;20576;-86
2021/09/10 11:10:05;;;;;;;5.57;2.90;;;;;;;29.09;27.82;99429.69;5062598;28;20228;-83
2021/09/10 11:12:34;;;;;;;6.50;3.15;;;;;;;29.17;27.61;99427.94;5062749;28;20222;-86
2021/09/10 11:15:14;;;;;;;3.25;2.80;;;;;;;29.24;27.47;99415.16;5045956;28;20636;-82
2021/09/10 11:17:42;;;;;;;4.97;2.72;;;;;;;29.24;27.48;99417.94;5062516;28;20220;-83
2021/09/10 11:20:11;;;;;;;4.78;2.83;;;;;;;29.31;27.81;99417.34;5061993;28;20236;-86
2021/09/10 11:22:48;;;;;;;5.80;2.90;;;;;;;29.38;28.26;99416.78;5079610;28;20236;-83
2021/09/10 11:25:21;;;;;;;3.00;2.30;;;;;;;29.34;26.99;99413.91;5080235;28;20234;-82
2021/09/10 11:27:51;;;;;;;9.18;2.80;;;;;;;29.49;26.45;99423.41;5117218;28;20307;-89
2021/09/10 11:30:21;;;;;;;4.38;2.78;;;;;;;29.37;26.63;99410.44;5116015;28;20235;-88
2021/09/10 11:33:00;;;;;;;6.28;2.60;;;;;;;29.46;26.13;99413.88;5073422;28;20235;-85
2021/09/10 11:35:35;;;;;;;6.20;2.83;;;;;;;29.59;27.96;99417.38;5079757;28;20239;-84
2021/09/10 11:38:14;;;;;;;4.55;2.63;;;;;;;29.63;26.19;99410.03;5060438;28;20228;-87
2021/09/10 11:40:58;;;;;;;4.05;2.70;;;;;;;29.75;25.73;99412.72;5082558;28;20220;-83
2021/09/10 11:43:32;;;;;;;6.43;2.70;;;;;;;29.77;25.70;99412.38;5088078;28;20220;-85
2021/09/10 11:46:08;;;;;;;5.05;2.50;;;;;;;29.79;25.15;99410.88;5067436;28;20224;-85
2021/09/10 11:48:42;;;;;;;4.00;2.55;;;;;;;29.79;25.02;99407.28;5079053;28;20238;-85
2021/09/10 11:51:15;;;;;;;6.28;2.45;;;;;;;29.75;25.23;99396.16;5079121;28;20228;-88
2021/09/10 11:53:56;;;;;;;3.17;2.50;;;;;;;29.76;25.55;99408.81;5059211;28;20244;-84
2021/09/10 11:56:33;;;;;;;4.05;2.70;;;;;;;29.80;24.95;99397.88;5065688;28;20223;-86
2021/09/10 11:59:16;;;;;;;2.97;2.58;;;;;;;30.00;25.22;99402.41;5050263;28;20228;-87
2021/09/10 12:01:46;;;;;;;3.35;2.40;;;;;;;30.06;25.07;99406.50;5074101;28;20609;-85
2021/09/10 12:04:29;;;;;;;2.55;2.35;;;;;;;30.13;24.31;99401.16;5052816;28;20251;-86